FranceFixed distance
La SaintéLyon
3 Dec2022
Distance
78km
Finishers
5,3054,724 men575 women
Winning time
5:47:35h
Median pace
6.80km/h
Pace distribution
5,299 finishers · 4.66–13.46 km/h · mean 6.94
Every finisher ran the same 78 km course, so these paces are directly comparable.
Histogram of finisher pace. 5,299 finishers ranged from 4.66 to 13.46 kilometres per hour, with a mean of 6.94 and a median of 6.80. The busiest band is 6.5 to 7.0 kilometres per hour, with 1,005 finishers.
Results
Ranks 3,551–3,600 of 5,299
| Rank | Runner | Time | Pace | Cat. | Placing |
|---|---|---|---|---|---|
| 3556 | Martinez, PierreFranceMan PAS de Club | 12:19:37h | 6.33 | MU23 | 3290th M · 133rd MU23 |
| 3557 | Piot, ArnaudFranceMan | 12:19:39h | 6.33 | M35 | 3291st M · 594th M35 |
| 3558 | Dorgere, MaximeFranceMan Team Trail Aix-LES-Bains | 12:19:42h | 6.33 | M23 | 3292nd M · 1371st M23 |
| 3559 | Chaleat, CyrielleFranceWoman Team Sdil | 12:19:46h | 6.33 | W23 | 267th F · 111th W23 |
| 3560 | Pelissier, RegisFranceMan *Chatou | 12:19:59h | 6.32 | M50 | 3293rd M · 226th M50 |
| 3561 | de Vitry, AxelleFranceWoman | 12:20:01h | 6.32 | W35 | 268th F · 48th W35 |
| 3562 | de Vitry, BenoitFranceMan | 12:20:04h | 6.32 | M40 | 3294th M · 465th M40 |
| 3563 | Puma, ThomasFranceMan | 12:20:07h | 6.32 | M23 | 3295th M · 1372nd M23 |
| 3564 | Regouby, BaptisteFranceMan | 12:20:11h | 6.32 | M35 | 3296th M · 595th M35 |
| 3565 | Andre, DominiqueFranceMan *Paris | 12:20:17h | 6.32 | M55 | 3297th M · 101st M55 |
| 3566 | Rocault, StephaneFranceMan 100% BPM | 12:20:21h | 6.32 | M40 | 3298th M · 466th M40 |
| 3567 | Bellotto, VictorFranceMan SUD Raid Tourton | 12:20:29h | 6.32 | M23 | 3299th M · 1373rd M23 |
| 3568 | Deroussen, YvesFranceMan | 12:20:32h | 6.32 | M40 | 3300th M · 467th M40 |
| 3569 | Benykhlef, KarimFranceMan | 12:20:37h | 6.32 | M50 | 3301st M · 227th M50 |
| 3569 | Dehaynin, BriceFranceMan Pessac Aventure Triathlon | 12:20:37h | 6.32 | M50 | 3301st M · 227th M50 |
| 3571 | Dehaynin, ChristineFranceWoman Pessac Aventure Triathlon | 12:20:38h | 6.32 | W50 | 269th F · 15th W50 |
| 3572 | Chanut, QuentinFranceMan | 12:20:43h | 6.32 | MU23 | 3303rd M · 134th MU23 |
| 3573 | Zittel, JeromeFranceMan | 12:20:44h | 6.32 | M50 | 3304th M · 229th M50 |
| 3574 | Martineau, SamuelFranceMan | 12:20:45h | 6.32 | M23 | 3305th M · 1374th M23 |
| 3574 | Gaboriau, TomFranceMan *Vénissieux | 12:20:45h | 6.32 | M23 | 3305th M · 1374th M23 |
| 3574 | Coppens-Ramelot, ClementFranceMan | 12:20:45h | 6.32 | M23 | 3305th M · 1374th M23 |
| 3577 | Chauvot, JulieFranceWoman | 12:20:50h | 6.32 | W23 | 270th F · 112th W23 |
| 3577 | Lherbier, Jean-SebastienFranceMan *Saint-Quentin-Fallavier | 12:20:50h | 6.32 | M40 | 3308th M · 468th M40 |
| 3579 | Walbaum, VincentFranceMan *Uccle | 12:20:51h | 6.32 | M40 | 3309th M · 469th M40 |
| 3580 | Budillon, AudreyFranceWoman Team Barjots | 12:20:56h | 6.32 | W45 | 271st F · 40th W45 |
| 3580 | Pottier, AlexisFranceMan *Beauvoir-De-Marc | 12:20:56h | 6.32 | M35 | 3310th M · 596th M35 |
| 3583 | Munoz, SeverineFranceWoman *Montbrison | 12:21:17h | 6.31 | W40 | 272nd F · 47th W40 |
| 3583 | Bouchut, SebastienFranceMan | 12:21:17h | 6.31 | M35 | 3312th M · 597th M35 |
| 3585 | Drissi, NizalFranceMan *Rueil-Malmaison | 12:21:22h | 6.31 | M45 | 3313th M · 374th M45 |
| 3586 | Boulier, PhilippeFranceMan | 12:21:35h | 6.31 | M60 | 3314th M · 24th M60 |
| 3587 | Hallynck, MarcFranceMan *Levallois-Perret | 12:21:36h | 6.31 | M23 | 3315th M · 1377th M23 |
| 3588 | Delamarche, JeromeFranceMan les Coustalats | 12:21:48h | 6.31 | M55 | 3316th M · 102nd M55 |
| 3589 | Farnier, SylvainFranceMan | 12:21:51h | 6.31 | M23 | 3317th M · 1378th M23 |
| 3590 | Berhaut, RaphaelFranceMan | 12:21:56h | 6.31 | M23 | 3318th M · 1379th M23 |
| 3591 | Bazelot, FabriceFranceMan | 12:21:57h | 6.31 | M50 | 3319th M · 230th M50 |
| 3592 | Boulongne, RobertFranceMan | 12:22:17h | 6.30 | M55 | 3320th M · 103rd M55 |
| 3593 | Gentil, CharlesFranceMan | 12:22:26h | 6.30 | M35 | 3321st M · 598th M35 |
| 3594 | Mougin, CedricFranceMan | 12:22:28h | 6.30 | M40 | 3322nd M · 470th M40 |
| 3595 | Samson, EnzoFranceMan Kiwami Trail Racing Team | 12:22:29h | 6.30 | MU23 | 3323rd M · 135th MU23 |
| 3596 | Thiry, LudoFranceMan Courir EN Nouvelle-Aqu... | 12:22:36h | 6.30 | MU23 | 3324th M · 136th MU23 |
| 3597 | Pleiber, RenanFranceMan | 12:22:47h | 6.30 | M45 | 3325th M · 375th M45 |
| 3598 | Lemonnier, LudovicFranceMan Association Belleville... | 12:22:54h | 6.30 | M35 | 3326th M · 599th M35 |
| 3599 | Gendron, RudyFranceMan Sens Route Trail | 12:22:55h | 6.30 | M35 | 3327th M · 600th M35 |
| 3600 | Blanchin, KevinFranceMan | 12:22:59h | 6.30 | M23 | 3328th M · 1380th M23 |
| 3601 | Benech, GeoffreyFranceMan | 12:23:04h | 6.30 | M23 | 3329th M · 1381st M23 |
| 3602 | Pflumio, MartinFranceMan Brumath Triathlon | 12:23:08h | 6.30 | M50 | 3330th M · 231st M50 |
| 3603 | Piffeteau, StephanieFranceWoman Ursa | 12:23:11h | 6.30 | W45 | 273rd F · 41st W45 |
| 3604 | Vialter, PierreFranceMan | 12:23:16h | 6.30 | M35 | 3331st M · 601st M35 |
| 3605 | Lopez, FabriceFranceMan *Nice | 12:23:20h | 6.30 | M45 | 3332nd M · 376th M45 |
| 3606 | Juan, Jean-StephaneFranceMan *Chambéry | 12:23:27h | 6.29 | M40 | 3333rd M · 471st M40 |
- 3556Martinez, PierreFranceManPAS de Club3290th M · 133rd MU23Time12:19:37hPace6.33Cat.MU23
- 3557Piot, ArnaudFranceMan3291st M · 594th M35Time12:19:39hPace6.33Cat.M35
- 3558Dorgere, MaximeFranceManTeam Trail Aix-LES-Bains3292nd M · 1371st M23Time12:19:42hPace6.33Cat.M23
- 3559Chaleat, CyrielleFranceWomanTeam Sdil267th F · 111th W23Time12:19:46hPace6.33Cat.W23
- 3560Pelissier, RegisFranceMan*Chatou3293rd M · 226th M50Time12:19:59hPace6.32Cat.M50
- 3561de Vitry, AxelleFranceWoman268th F · 48th W35Time12:20:01hPace6.32Cat.W35
- 3562de Vitry, BenoitFranceMan3294th M · 465th M40Time12:20:04hPace6.32Cat.M40
- 3563Puma, ThomasFranceMan3295th M · 1372nd M23Time12:20:07hPace6.32Cat.M23
- 3564Regouby, BaptisteFranceMan3296th M · 595th M35Time12:20:11hPace6.32Cat.M35
- 3565Andre, DominiqueFranceMan*Paris3297th M · 101st M55Time12:20:17hPace6.32Cat.M55
- 3566Rocault, StephaneFranceMan100% BPM3298th M · 466th M40Time12:20:21hPace6.32Cat.M40
- 3567Bellotto, VictorFranceManSUD Raid Tourton3299th M · 1373rd M23Time12:20:29hPace6.32Cat.M23
- 3568Deroussen, YvesFranceMan3300th M · 467th M40Time12:20:32hPace6.32Cat.M40
- 3569Benykhlef, KarimFranceMan3301st M · 227th M50Time12:20:37hPace6.32Cat.M50
- 3569Dehaynin, BriceFranceManPessac Aventure Triathlon3301st M · 227th M50Time12:20:37hPace6.32Cat.M50
- 3571Dehaynin, ChristineFranceWomanPessac Aventure Triathlon269th F · 15th W50Time12:20:38hPace6.32Cat.W50
- 3572Chanut, QuentinFranceMan3303rd M · 134th MU23Time12:20:43hPace6.32Cat.MU23
- 3573Zittel, JeromeFranceMan3304th M · 229th M50Time12:20:44hPace6.32Cat.M50
- 3574Martineau, SamuelFranceMan3305th M · 1374th M23Time12:20:45hPace6.32Cat.M23
- 3574Gaboriau, TomFranceMan*Vénissieux3305th M · 1374th M23Time12:20:45hPace6.32Cat.M23
- 3574Coppens-Ramelot, ClementFranceMan3305th M · 1374th M23Time12:20:45hPace6.32Cat.M23
- 3577Chauvot, JulieFranceWoman270th F · 112th W23Time12:20:50hPace6.32Cat.W23
- 3577Lherbier, Jean-SebastienFranceMan*Saint-Quentin-Fallavier3308th M · 468th M40Time12:20:50hPace6.32Cat.M40
- 3579Walbaum, VincentFranceMan*Uccle3309th M · 469th M40Time12:20:51hPace6.32Cat.M40
- 3580Budillon, AudreyFranceWomanTeam Barjots271st F · 40th W45Time12:20:56hPace6.32Cat.W45
- 3580Pottier, AlexisFranceMan*Beauvoir-De-Marc3310th M · 596th M35Time12:20:56hPace6.32Cat.M35
- 3583Munoz, SeverineFranceWoman*Montbrison272nd F · 47th W40Time12:21:17hPace6.31Cat.W40
- 3583Bouchut, SebastienFranceMan3312th M · 597th M35Time12:21:17hPace6.31Cat.M35
- 3585Drissi, NizalFranceMan*Rueil-Malmaison3313th M · 374th M45Time12:21:22hPace6.31Cat.M45
- 3586Boulier, PhilippeFranceMan3314th M · 24th M60Time12:21:35hPace6.31Cat.M60
- 3587Hallynck, MarcFranceMan*Levallois-Perret3315th M · 1377th M23Time12:21:36hPace6.31Cat.M23
- 3588Delamarche, JeromeFranceManles Coustalats3316th M · 102nd M55Time12:21:48hPace6.31Cat.M55
- 3589Farnier, SylvainFranceMan3317th M · 1378th M23Time12:21:51hPace6.31Cat.M23
- 3590Berhaut, RaphaelFranceMan3318th M · 1379th M23Time12:21:56hPace6.31Cat.M23
- 3591Bazelot, FabriceFranceMan3319th M · 230th M50Time12:21:57hPace6.31Cat.M50
- 3592Boulongne, RobertFranceMan3320th M · 103rd M55Time12:22:17hPace6.30Cat.M55
- 3593Gentil, CharlesFranceMan3321st M · 598th M35Time12:22:26hPace6.30Cat.M35
- 3594Mougin, CedricFranceMan3322nd M · 470th M40Time12:22:28hPace6.30Cat.M40
- 3595Samson, EnzoFranceManKiwami Trail Racing Team3323rd M · 135th MU23Time12:22:29hPace6.30Cat.MU23
- 3596Thiry, LudoFranceManCourir EN Nouvelle-Aqu...3324th M · 136th MU23Time12:22:36hPace6.30Cat.MU23
- 3597Pleiber, RenanFranceMan3325th M · 375th M45Time12:22:47hPace6.30Cat.M45
- 3598Lemonnier, LudovicFranceManAssociation Belleville...3326th M · 599th M35Time12:22:54hPace6.30Cat.M35
- 3599Gendron, RudyFranceManSens Route Trail3327th M · 600th M35Time12:22:55hPace6.30Cat.M35
- 3600Blanchin, KevinFranceMan3328th M · 1380th M23Time12:22:59hPace6.30Cat.M23
- 3601Benech, GeoffreyFranceMan3329th M · 1381st M23Time12:23:04hPace6.30Cat.M23
- 3602Pflumio, MartinFranceManBrumath Triathlon3330th M · 231st M50Time12:23:08hPace6.30Cat.M50
- 3603Piffeteau, StephanieFranceWomanUrsa273rd F · 41st W45Time12:23:11hPace6.30Cat.W45
- 3604Vialter, PierreFranceMan3331st M · 601st M35Time12:23:16hPace6.30Cat.M35
- 3605Lopez, FabriceFranceMan*Nice3332nd M · 376th M45Time12:23:20hPace6.30Cat.M45
- 3606Juan, Jean-StephaneFranceMan*Chambéry3333rd M · 471st M40Time12:23:27hPace6.29Cat.M40
Showing ranks 3,551–3,600 of 5,299